Time;durP1;ratioP1;P1;durP2;ratioP2;P2;SDS_P1;SDS_P2;PMS_P1;PMS_P2;Temp;Humidity;BMP_temperature;BMP_pressure;BME280_temperature;BME280_humidity;BME280_pressure;Samples;Min_cycle;Max_cycle;Signal;HPM_P1;HPM_P2
2022/04/19 00:00:39;;;;;;;8.73;4.88;;;2.90;99.10;;;;;;5053836;28;20075;-86
2022/04/19 00:03:10;;;;;;;8.95;4.15;;;2.90;99.90;;;;;;5056811;28;20098;-85
2022/04/19 00:05:36;;;;;;;8.95;3.72;;;2.80;99.50;;;;;;5056443;28;20035;-87
2022/04/19 00:08:09;;;;;;;7.07;4.30;;;2.80;99.30;;;;;;5048248;28;20055;-84
2022/04/19 00:10:35;;;;;;;9.73;4.60;;;2.80;99.00;;;;;;5052173;28;20082;-87
2022/04/19 00:13:04;;;;;;;9.35;5.30;;;2.70;99.30;;;;;;5043076;28;20029;-84
2022/04/19 00:15:30;;;;;;;9.48;4.15;;;2.70;98.80;;;;;;5049208;28;20043;-85
2022/04/19 00:18:00;;;;;;;11.02;5.40;;;2.70;99.30;;;;;;5040934;28;20056;-86
2022/04/19 00:20:28;;;;;;;9.88;5.18;;;2.80;99.50;;;;;;5060819;28;20562;-86
2022/04/19 00:22:54;;;;;;;7.85;3.97;;;2.70;99.20;;;;;;5055533;28;20029;-86
2022/04/19 00:25:20;;;;;;;7.53;4.38;;;2.70;99.90;;;;;;5057689;28;20024;-86
2022/04/19 00:27:46;;;;;;;7.75;4.70;;;2.60;99.90;;;;;;5055390;28;20039;-86
2022/04/19 00:30:13;;;;;;;11.73;5.20;;;2.50;99.90;;;;;;5057995;28;20054;-86
2022/04/19 00:32:39;;;;;;;8.40;4.53;;;2.50;99.90;;;;;;5052671;28;20445;-86
2022/04/19 00:35:07;;;;;;;8.43;4.47;;;2.50;99.90;;;;;;5055551;28;20407;-87
2022/04/19 00:37:34;;;;;;;12.07;4.97;;;2.50;99.90;;;;;;5053424;28;20053;-85
2022/04/19 00:40:01;;;;;;;10.25;4.75;;;2.70;99.90;;;;;;5049132;28;20030;-86
2022/04/19 00:42:31;;;;;;;11.52;5.07;;;2.80;99.50;;;;;;5050254;28;20418;-86
2022/04/19 00:44:58;;;;;;;9.00;4.65;;;2.80;99.30;;;;;;5049233;28;20021;-86
2022/04/19 00:47:25;;;;;;;8.35;4.80;;;2.70;99.40;;;;;;5064609;28;20039;-86
2022/04/19 00:49:51;;;;;;;11.07;5.28;;;2.50;99.60;;;;;;5062967;28;20060;-88
2022/04/19 00:52:17;;;;;;;8.90;4.95;;;2.50;99.90;;;;;;5059833;28;20057;-86
2022/04/19 00:54:43;;;;;;;11.20;5.35;;;2.50;99.90;;;;;;5056637;28;20071;-87
2022/04/19 00:57:10;;;;;;;12.38;5.03;;;2.40;99.90;;;;;;5057516;28;20115;-87
2022/04/19 00:59:36;;;;;;;10.45;4.82;;;2.40;99.90;;;;;;5073182;28;20025;-87
2022/04/19 01:02:03;;;;;;;10.60;4.60;;;2.30;99.90;;;;;;5053367;28;20033;-87
2022/04/19 01:04:29;;;;;;;11.15;4.60;;;2.30;99.90;;;;;;5056481;28;20051;-86
2022/04/19 01:06:57;;;;;;;8.50;4.38;;;2.50;99.90;;;;;;5055021;28;20029;-87
2022/04/19 01:09:23;;;;;;;9.18;4.32;;;2.50;99.90;;;;;;5055239;28;20032;-85
2022/04/19 01:14:36;;;;;;;8.32;3.92;;;2.40;99.90;;;;;;5053034;28;20193;-87
2022/04/19 01:17:03;;;;;;;9.50;4.05;;;2.30;99.90;;;;;;5059547;28;20037;-86
2022/04/19 01:19:29;;;;;;;8.25;4.53;;;2.20;99.90;;;;;;5061155;28;20021;-86
2022/04/19 01:21:55;;;;;;;16.17;6.20;;;2.20;99.90;;;;;;5053955;28;20036;-86
2022/04/19 01:24:23;;;;;;;7.68;4.35;;;2.10;99.90;;;;;;5055552;28;20082;-86
2022/04/19 01:26:52;;;;;;;8.48;4.72;;;2.10;99.90;;;;;;5058658;28;20032;-85
2022/04/19 01:29:18;;;;;;;8.55;4.13;;;2.10;99.90;;;;;;5061777;28;20087;-85
2022/04/19 01:31:45;;;;;;;8.90;5.32;;;2.10;99.90;;;;;;5075287;28;20489;-86
2022/04/19 01:34:11;;;;;;;9.13;3.85;;;2.10;99.90;;;;;;5054668;28;20032;-86
2022/04/19 01:36:38;;;;;;;8.18;4.68;;;2.00;99.90;;;;;;5052791;28;20497;-86
2022/04/19 01:39:09;;;;;;;6.75;3.90;;;2.00;99.90;;;;;;5071222;28;20053;-89
2022/04/19 01:41:36;;;;;;;8.85;5.93;;;1.90;99.90;;;;;;5055395;28;20092;-88
2022/04/19 01:44:05;;;;;;;8.10;5.63;;;1.90;99.90;;;;;;5054450;28;20064;-86
2022/04/19 01:46:33;;;;;;;10.63;5.25;;;1.90;99.90;;;;;;5056662;28;20028;-87
2022/04/19 01:49:03;;;;;;;7.85;4.75;;;1.80;99.90;;;;;;5068011;28;20043;-87
2022/04/19 01:51:29;;;;;;;8.50;4.55;;;1.80;99.90;;;;;;5048802;28;20029;-86
2022/04/19 01:53:55;;;;;;;7.85;4.07;;;1.90;99.90;;;;;;5061821;28;20048;-87
2022/04/19 01:56:21;;;;;;;9.07;4.25;;;1.80;99.90;;;;;;5058369;28;20032;-85
2022/04/19 01:58:48;;;;;;;9.25;4.45;;;1.70;99.90;;;;;;5060363;28;20110;-86
2022/04/19 02:01:14;;;;;;;9.18;4.35;;;1.70;99.90;;;;;;5048908;28;20048;-88
2022/04/19 02:03:40;;;;;;;8.15;4.25;;;1.60;99.90;;;;;;5040467;28;20106;-88
2022/04/19 02:06:11;;;;;;;7.18;4.25;;;1.70;99.90;;;;;;5052552;28;20071;-88
2022/04/19 02:08:37;;;;;;;9.05;4.68;;;1.60;99.90;;;;;;5053927;28;20104;-88
2022/04/19 02:11:04;;;;;;;8.52;5.15;;;1.60;99.90;;;;;;5033255;28;20757;-88
2022/04/19 02:13:31;;;;;;;8.88;3.95;;;1.60;99.90;;;;;;5058677;28;20029;-87
2022/04/19 02:15:58;;;;;;;10.55;5.30;;;1.70;99.90;;;;;;5064748;28;20029;-87
2022/04/19 02:18:25;;;;;;;9.13;4.45;;;1.60;99.90;;;;;;5033773;28;20515;-87
2022/04/19 02:20:50;;;;;;;13.45;4.93;;;1.70;99.90;;;;;;5052787;28;20587;-87
2022/04/19 02:23:16;;;;;;;10.55;3.95;;;1.70;99.90;;;;;;5062867;28;20076;-87
2022/04/19 02:25:42;;;;;;;13.13;5.97;;;1.50;99.90;;;;;;5060689;28;20052;-87
2022/04/19 02:28:09;;;;;;;7.38;4.38;;;1.40;99.90;;;;;;5058296;28;20078;-88
2022/04/19 02:30:35;;;;;;;6.50;3.72;;;1.30;99.90;;;;;;5050224;28;20144;-88
2022/04/19 02:33:02;;;;;;;7.43;3.60;;;1.30;99.90;;;;;;5053246;28;20507;-87
2022/04/19 02:35:28;;;;;;;7.82;3.80;;;1.30;99.90;;;;;;5045084;28;20033;-87
2022/04/19 02:37:56;;;;;;;10.10;3.92;;;1.30;99.90;;;;;;5037653;28;20125;-87
2022/04/19 02:40:23;;;;;;;7.60;4.50;;;1.40;99.90;;;;;;5066021;28;20400;-88
2022/04/19 02:42:52;;;;;;;7.45;4.22;;;1.40;99.90;;;;;;5048123;28;20032;-90
2022/04/19 02:45:20;;;;;;;7.30;3.92;;;1.40;99.90;;;;;;5040306;28;20025;-88
2022/04/19 02:47:46;;;;;;;6.15;3.38;;;1.30;99.90;;;;;;5046365;28;20222;-85
2022/04/19 02:50:11;;;;;;;7.88;4.47;;;1.20;99.90;;;;;;5069715;28;20123;-87
2022/04/19 02:52:37;;;;;;;8.50;4.80;;;1.10;99.90;;;;;;5057863;28;20115;-87
2022/04/19 02:55:03;;;;;;;8.38;5.05;;;1.10;99.90;;;;;;5046484;28;20037;-88
2022/04/19 02:57:29;;;;;;;8.93;4.95;;;1.20;99.90;;;;;;5041981;28;20403;-87
2022/04/19 02:59:54;;;;;;;6.18;4.13;;;1.20;99.90;;;;;;5039869;28;20530;-88
2022/04/19 03:02:20;;;;;;;7.05;3.83;;;1.10;99.90;;;;;;5052023;28;20047;-87
2022/04/19 03:04:46;;;;;;;7.55;4.15;;;1.10;99.90;;;;;;5050936;28;20087;-89
2022/04/19 03:07:14;;;;;;;9.52;4.93;;;1.10;99.90;;;;;;5038190;28;20082;-87
2022/04/19 03:09:41;;;;;;;6.57;3.90;;;1.00;99.90;;;;;;5064392;28;20427;-87
2022/04/19 03:12:10;;;;;;;9.73;4.43;;;1.10;99.90;;;;;;5041232;28;20036;-88
2022/04/19 03:14:36;;;;;;;9.68;4.40;;;1.00;99.90;;;;;;5021717;28;20072;-87
2022/04/19 03:17:02;;;;;;;7.88;3.92;;;1.10;99.90;;;;;;5042044;28;20487;-87
2022/04/19 03:19:28;;;;;;;7.70;4.53;;;1.20;99.90;;;;;;5072134;28;20108;-87
2022/04/19 03:21:53;;;;;;;8.00;4.47;;;1.10;99.90;;;;;;5035769;28;20394;-87
2022/04/19 03:29:47;;;;;;;6.22;4.22;;;1.10;99.90;;;;;;5077080;28;20043;-87
2022/04/19 03:32:12;;;;;;;13.43;5.88;;;1.10;99.90;;;;;;5082004;28;20052;-88
2022/04/19 03:34:39;;;;;;;7.20;4.10;;;1.00;99.90;;;;;;5041647;28;20063;-89
2022/04/19 03:37:05;;;;;;;9.23;4.00;;;0.90;99.90;;;;;;5049328;28;20037;-88
2022/04/19 03:39:31;;;;;;;9.32;4.50;;;0.80;99.90;;;;;;5031035;28;20040;-88
2022/04/19 03:41:57;;;;;;;7.80;4.18;;;0.80;99.90;;;;;;5046163;28;20037;-88
2022/04/19 03:44:25;;;;;;;9.60;4.68;;;0.80;99.90;;;;;;5049434;28;20132;-88
2022/04/19 03:47:07;;;;;;;10.38;4.80;;;0.80;99.90;;;;;;5066995;28;20071;-87
2022/04/19 03:49:36;;;;;;;10.27;5.40;;;0.90;99.90;;;;;;5068927;28;20033;-89
2022/04/19 03:52:03;;;;;;;10.77;5.47;;;0.90;99.90;;;;;;5085005;28;20429;-87
2022/04/19 03:54:29;;;;;;;11.73;5.15;;;0.90;99.90;;;;;;5086156;28;20009;-87
2022/04/19 03:56:55;;;;;;;10.85;6.50;;;0.80;99.90;;;;;;5061261;28;20041;-88
2022/04/19 03:59:22;;;;;;;9.40;5.22;;;0.90;99.90;;;;;;5059156;28;20028;-88
2022/04/19 04:01:48;;;;;;;11.85;5.50;;;0.90;99.90;;;;;;5057688;28;20036;-87
2022/04/19 04:04:13;;;;;;;9.23;5.78;;;0.80;99.90;;;;;;5058168;28;20380;-87
2022/04/19 04:06:39;;;;;;;10.82;5.53;;;0.80;99.90;;;;;;5052314;28;20488;-87
2022/04/19 04:09:06;;;;;;;10.57;4.70;;;0.80;99.90;;;;;;5051097;28;20560;-87
2022/04/19 04:11:32;;;;;;;6.93;4.03;;;0.80;99.90;;;;;;5058150;28;20020;-88
2022/04/19 04:13:58;;;;;;;10.93;4.63;;;0.70;99.90;;;;;;5052678;28;20033;-88
2022/04/19 04:16:24;;;;;;;13.27;4.63;;;0.70;99.90;;;;;;5064462;28;20547;-87
2022/04/19 04:18:50;;;;;;;10.90;4.88;;;0.80;99.90;;;;;;5061710;28;20066;-88
2022/04/19 04:21:15;;;;;;;9.40;5.05;;;0.80;99.90;;;;;;5059318;28;20561;-87
2022/04/19 04:23:41;;;;;;;10.95;5.25;;;0.80;99.90;;;;;;5043786;28;20451;-87
2022/04/19 04:26:06;;;;;;;8.65;4.97;;;0.70;99.90;;;;;;5055866;28;20664;-88
2022/04/19 04:28:32;;;;;;;10.13;5.30;;;0.80;99.90;;;;;;5056413;28;20120;-88
2022/04/19 04:30:58;;;;;;;10.40;5.07;;;0.80;99.90;;;;;;5051962;28;20496;-89
2022/04/19 04:33:23;;;;;;;9.80;5.28;;;1.00;99.90;;;;;;5055908;28;20083;-88
2022/04/19 04:35:49;;;;;;;10.57;5.50;;;0.90;99.90;;;;;;5057373;28;20086;-87
2022/04/19 04:38:15;;;;;;;10.35;5.32;;;0.80;99.90;;;;;;5052477;28;20083;-86
2022/04/19 04:40:40;;;;;;;14.13;5.82;;;0.80;99.90;;;;;;5050012;28;20048;-88
2022/04/19 04:43:06;;;;;;;11.00;5.05;;;0.90;99.90;;;;;;5043316;28;20073;-87
2022/04/19 04:45:32;;;;;;;10.57;5.07;;;0.90;99.90;;;;;;5055642;28;20029;-87
2022/04/19 04:50:42;;;;;;;11.60;5.28;;;0.90;99.90;;;;;;5061744;28;20620;-87
2022/04/19 04:53:07;;;;;;;11.10;7.18;;;1.00;99.90;;;;;;5071595;28;20056;-87
2022/04/19 04:55:33;;;;;;;11.52;6.55;;;1.20;99.90;;;;;;5062082;28;20040;-87
2022/04/19 04:58:01;;;;;;;10.13;5.53;;;1.20;99.90;;;;;;5058058;28;20060;-87
2022/04/19 05:00:27;;;;;;;11.80;7.05;;;1.30;99.90;;;;;;5050459;28;20033;-88
2022/04/19 05:02:53;;;;;;;13.75;6.50;;;1.30;99.90;;;;;;5049504;28;20025;-88
2022/04/19 05:05:19;;;;;;;15.02;7.57;;;1.30;99.90;;;;;;5053286;28;20026;-88
2022/04/19 05:07:45;;;;;;;10.20;6.90;;;1.30;99.90;;;;;;5066403;28;20049;-87
2022/04/19 05:10:11;;;;;;;19.20;6.93;;;1.30;99.90;;;;;;5052016;28;20151;-87
2022/04/19 05:12:37;;;;;;;13.57;6.18;;;1.40;99.90;;;;;;5047946;28;20499;-87
2022/04/19 05:15:04;;;;;;;12.13;6.05;;;1.50;99.90;;;;;;5061029;28;20037;-87
2022/04/19 05:17:29;;;;;;;10.88;6.35;;;1.50;99.90;;;;;;5058674;28;20564;-87
2022/04/19 05:19:55;;;;;;;11.05;5.93;;;1.60;99.90;;;;;;5059775;28;20052;-88
2022/04/19 05:22:22;;;;;;;11.43;6.07;;;1.60;99.90;;;;;;5042901;28;20052;-90
2022/04/19 05:24:48;;;;;;;10.23;6.13;;;1.60;99.90;;;;;;5061415;28;20035;-87
2022/04/19 05:27:13;;;;;;;14.23;6.72;;;1.70;99.90;;;;;;5057321;28;20032;-86
2022/04/19 05:29:39;;;;;;;11.07;6.68;;;1.90;99.90;;;;;;5057138;28;20130;-87
2022/04/19 05:32:05;;;;;;;16.30;7.07;;;2.00;99.90;;;;;;5056166;28;20060;-87
2022/04/19 05:34:31;;;;;;;11.02;6.60;;;2.10;99.90;;;;;;5036414;28;20380;-88
2022/04/19 05:36:57;;;;;;;13.27;6.40;;;2.30;99.90;;;;;;5059528;28;20030;-88
2022/04/19 05:39:23;;;;;;;12.02;6.68;;;2.40;99.90;;;;;;5047248;28;20391;-88
2022/04/19 05:41:48;;;;;;;9.30;5.47;;;2.50;99.90;;;;;;5056766;28;20036;-87
2022/04/19 05:44:14;;;;;;;8.85;6.07;;;2.50;99.90;;;;;;5061662;28;20116;-87
2022/04/19 05:46:40;;;;;;;11.07;5.75;;;2.60;99.90;;;;;;5065671;28;20029;-88
2022/04/19 05:49:06;;;;;;;13.15;6.72;;;2.60;99.90;;;;;;5068222;28;20059;-88
2022/04/19 05:51:35;;;;;;;13.27;6.05;;;2.70;99.90;;;;;;5063085;28;20527;-88
2022/04/19 05:54:01;;;;;;;10.73;6.63;;;2.80;99.90;;;;;;5056638;28;20056;-88
2022/04/19 05:56:27;;;;;;;10.27;5.57;;;2.90;99.90;;;;;;5058299;28;20080;-89
2022/04/19 05:58:53;;;;;;;10.02;6.30;;;3.10;99.90;;;;;;5058580;28;20483;-86
2022/04/19 06:01:19;;;;;;;11.90;6.30;;;3.30;99.90;;;;;;5058201;28;20033;-86
2022/04/19 06:06:29;;;;;;;11.55;6.38;;;3.60;99.90;;;;;;5057016;28;20434;-86
2022/04/19 06:08:55;;;;;;;10.45;6.10;;;3.80;99.90;;;;;;5057171;28;20032;-87
2022/04/19 06:11:21;;;;;;;11.45;6.63;;;4.10;99.90;;;;;;5055143;28;20032;-86
2022/04/19 06:13:47;;;;;;;10.05;6.70;;;4.30;99.80;;;;;;5052630;28;20028;-85
2022/04/19 06:16:13;;;;;;;12.75;6.75;;;4.40;98.70;;;;;;5064844;28;20085;-87
2022/04/19 06:18:39;;;;;;;11.52;7.38;;;4.60;99.00;;;;;;5057155;28;20040;-87
2022/04/19 06:21:05;;;;;;;12.02;6.63;;;4.70;98.90;;;;;;5057977;28;20556;-88
2022/04/19 06:23:32;;;;;;;12.13;7.03;;;4.90;98.70;;;;;;5061901;28;20029;-88
2022/04/19 06:25:58;;;;;;;12.73;7.22;;;5.00;99.50;;;;;;5045226;28;20040;-86
2022/04/19 06:28:24;;;;;;;12.13;7.18;;;5.20;99.20;;;;;;5059498;28;20162;-86
2022/04/19 06:30:50;;;;;;;15.00;6.93;;;5.20;99.40;;;;;;5038847;28;20162;-85
2022/04/19 06:33:16;;;;;;;16.77;7.95;;;5.30;99.90;;;;;;5054126;28;20051;-88
2022/04/19 06:35:41;;;;;;;15.57;7.30;;;5.50;99.90;;;;;;5053907;28;20403;-86
2022/04/19 06:38:08;;;;;;;17.08;8.35;;;5.70;99.90;;;;;;5053206;28;20538;-86
2022/04/19 06:40:34;;;;;;;14.25;7.50;;;6.00;99.90;;;;;;5054219;28;20025;-86
2022/04/19 06:43:00;;;;;;;16.35;8.65;;;6.20;99.50;;;;;;5033564;28;20033;-85
2022/04/19 06:45:26;;;;;;;13.85;7.32;;;6.30;99.80;;;;;;5061967;28;20020;-86
2022/04/19 06:47:59;;;;;;;10.70;6.65;;;6.40;99.50;;;;;;5058057;28;20037;-85
2022/04/19 06:50:25;;;;;;;12.60;6.57;;;6.50;99.10;;;;;;5039542;28;20036;-84
2022/04/19 06:52:52;;;;;;;14.38;6.72;;;6.70;96.00;;;;;;5041925;28;20040;-86
2022/04/19 06:55:19;;;;;;;10.98;6.03;;;6.90;94.40;;;;;;5053810;28;20135;-87
2022/04/19 06:57:49;;;;;;;12.38;7.55;;;7.10;90.40;;;;;;5048139;28;20602;-84
2022/04/19 07:00:17;;;;;;;10.57;6.45;;;7.10;85.70;;;;;;5051535;28;20032;-85
2022/04/19 07:02:44;;;;;;;10.35;5.53;;;7.30;84.70;;;;;;5051660;28;20055;-85
2022/04/19 07:05:11;;;;;;;13.43;6.75;;;7.50;89.50;;;;;;5053286;28;20029;-87
2022/04/19 07:07:43;;;;;;;11.27;6.30;;;7.80;90.00;;;;;;5047528;28;20124;-85
2022/04/19 07:10:12;;;;;;;10.98;6.53;;;8.00;88.80;;;;;;5048493;28;20044;-85
2022/04/19 07:12:39;;;;;;;9.93;6.60;;;8.00;89.70;;;;;;5042591;28;20125;-83
2022/04/19 07:15:05;;;;;;;13.05;6.82;;;8.20;90.70;;;;;;5053062;28;20025;-84
2022/04/19 07:17:31;;;;;;;10.35;5.65;;;8.40;89.80;;;;;;5059056;28;20021;-85
2022/04/19 07:28:19;;;;;;;13.65;6.80;;;8.90;86.00;;;;;;5053801;28;20047;-87
2022/04/19 07:30:46;;;;;;;11.23;6.47;;;9.00;91.50;;;;;;5051571;28;20041;-84
2022/04/19 07:33:11;;;;;;;11.10;6.45;;;9.20;91.00;;;;;;5054838;28;20080;-84
2022/04/19 07:35:37;;;;;;;12.18;6.25;;;9.40;83.20;;;;;;5050047;28;20063;-83
2022/04/19 07:38:03;;;;;;;10.23;5.65;;;9.40;86.00;;;;;;5049605;28;20074;-84
2022/04/19 07:40:29;;;;;;;9.52;5.55;;;9.50;79.50;;;;;;5044628;28;20090;-90
2022/04/19 07:42:55;;;;;;;10.68;6.38;;;9.70;80.20;;;;;;5040210;28;20112;-84
2022/04/19 07:45:20;;;;;;;8.57;5.72;;;9.60;78.00;;;;;;5068957;28;20144;-84
2022/04/19 07:47:47;;;;;;;16.98;6.50;;;9.70;75.70;;;;;;5059116;28;20537;-84
2022/04/19 07:50:12;;;;;;;11.95;6.10;;;10.00;80.10;;;;;;5053633;28;20488;-83
2022/04/19 07:52:38;;;;;;;10.35;5.70;;;10.40;80.20;;;;;;5050726;28;20120;-83
2022/04/19 07:55:04;;;;;;;13.40;6.53;;;10.50;78.10;;;;;;5036918;28;20175;-83
2022/04/19 07:57:30;;;;;;;11.45;5.97;;;10.60;76.80;;;;;;5047133;28;20029;-83
2022/04/19 07:59:56;;;;;;;13.18;5.80;;;10.80;76.20;;;;;;5047669;28;20025;-83
2022/04/19 08:02:21;;;;;;;10.73;5.78;;;10.80;72.40;;;;;;5044649;28;20032;-83
2022/04/19 08:04:47;;;;;;;8.10;5.43;;;11.10;73.30;;;;;;5052236;28;20029;-85
2022/04/19 08:07:13;;;;;;;7.45;5.25;;;11.20;70.00;;;;;;5049246;28;20059;-85
2022/04/19 08:09:39;;;;;;;9.90;4.72;;;11.40;70.40;;;;;;5043789;28;20065;-82
2022/04/19 08:12:05;;;;;;;7.78;4.30;;;11.60;62.60;;;;;;5045834;28;20033;-83
2022/04/19 08:14:31;;;;;;;9.60;5.05;;;11.60;59.90;;;;;;5060765;28;20128;-82
2022/04/19 08:16:57;;;;;;;10.77;4.72;;;11.70;59.20;;;;;;5053514;28;20031;-88
2022/04/19 08:19:23;;;;;;;8.65;4.03;;;12.00;60.30;;;;;;5068725;28;20089;-82
2022/04/19 08:21:49;;;;;;;9.13;4.03;;;12.20;59.80;;;;;;5073607;28;20036;-90
2022/04/19 08:24:15;;;;;;;8.20;4.63;;;12.40;57.50;;;;;;5070854;28;20087;-92
2022/04/19 08:26:40;;;;;;;7.63;4.97;;;12.40;54.50;;;;;;5087321;28;20249;-92
2022/04/19 08:29:07;;;;;;;10.45;4.68;;;12.50;54.00;;;;;;5069748;28;20025;-92
2022/04/19 08:31:34;;;;;;;9.05;3.50;;;12.60;49.90;;;;;;5053941;28;20049;-82
2022/04/19 08:33:59;;;;;;;6.63;4.80;;;12.60;48.00;;;;;;5068555;28;20041;-83
2022/04/19 08:36:25;;;;;;;8.98;4.85;;;12.80;51.70;;;;;;5049831;28;20124;-82
2022/04/19 08:38:50;;;;;;;9.32;4.80;;;13.20;51.70;;;;;;5060759;28;20052;-86
2022/04/19 08:41:19;;;;;;;7.10;3.38;;;13.30;47.30;;;;;;5059459;28;20065;-90
2022/04/19 08:43:45;;;;;;;9.57;3.95;;;13.40;47.20;;;;;;5060633;28;20028;-84
2022/04/19 08:46:11;;;;;;;9.35;4.60;;;13.40;46.80;;;;;;5062019;28;20040;-85
2022/04/19 08:48:39;;;;;;;7.57;4.20;;;13.60;49.70;;;;;;5059107;28;20071;-84
2022/04/19 08:51:08;;;;;;;8.52;4.85;;;13.70;42.40;;;;;;5054621;28;20028;-84
2022/04/19 08:59:04;;;;;;;11.35;3.83;;;13.60;45.40;;;;;;5049150;28;20060;-84
2022/04/19 09:01:30;;;;;;;9.30;4.82;;;13.90;42.90;;;;;;5056988;28;20040;-84
2022/04/19 09:03:56;;;;;;;10.05;3.70;;;13.80;42.50;;;;;;5054652;28;20040;-83
2022/04/19 09:06:41;;;;;;;5.60;3.50;;;13.90;42.20;;;;;;5033945;28;20032;-82
2022/04/19 09:09:11;;;;;;;9.05;3.80;;;14.00;41.20;;;;;;5048055;28;20025;-82
2022/04/19 09:11:37;;;;;;;6.47;3.57;;;14.10;39.90;;;;;;5050656;28;20063;-84
2022/04/19 09:14:07;;;;;;;6.03;3.47;;;14.30;40.40;;;;;;5058885;28;20064;-82
2022/04/19 09:16:32;;;;;;;9.13;4.03;;;14.10;40.50;;;;;;5055873;28;20028;-82
2022/04/19 09:18:58;;;;;;;6.82;4.20;;;14.00;41.50;;;;;;5057997;28;20380;-81
2022/04/19 09:21:37;;;;;;;6.93;3.45;;;13.90;40.70;;;;;;5055365;28;20466;-81
2022/04/19 09:24:17;;;;;;;9.00;4.82;;;13.80;44.50;;;;;;5049302;28;20037;-81
2022/04/19 09:26:44;;;;;;;7.88;3.88;;;14.20;42.00;;;;;;5062450;28;20027;-81
2022/04/19 09:29:25;;;;;;;10.73;4.60;;;14.20;42.90;;;;;;5043844;28;20057;-81
2022/04/19 09:31:57;;;;;;;9.82;4.90;;;14.10;42.00;;;;;;5055269;28;20118;-81
2022/04/19 09:34:23;;;;;;;8.65;4.43;;;14.20;43.10;;;;;;5045987;28;20080;-85
2022/04/19 09:36:53;;;;;;;7.30;4.10;;;14.40;40.90;;;;;;5065210;28;20029;-88
2022/04/19 09:39:27;;;;;;;10.27;4.68;;;14.60;41.40;;;;;;5044093;28;20124;-83
2022/04/19 09:42:08;;;;;;;10.23;4.57;;;14.60;40.70;;;;;;5042568;28;20059;-85
2022/04/19 09:44:42;;;;;;;9.90;4.72;;;14.80;41.10;;;;;;5063317;28;20035;-81
2022/04/19 09:47:10;;;;;;;13.20;5.20;;;15.20;40.40;;;;;;5054050;28;20028;-80
2022/04/19 09:49:50;;;;;;;8.32;4.60;;;15.50;42.00;;;;;;5060824;28;20417;-80
2022/04/19 09:52:21;;;;;;;8.57;3.93;;;15.80;40.10;;;;;;5037948;28;20476;-79
2022/04/19 09:54:59;;;;;;;11.15;4.68;;;15.80;38.40;;;;;;5058750;28;20236;-80
2022/04/19 09:57:25;;;;;;;12.15;5.35;;;15.70;40.20;;;;;;5051970;28;20523;-80
2022/04/19 09:59:52;;;;;;;11.35;4.93;;;15.80;39.00;;;;;;5050084;28;20553;-81
2022/04/19 10:10:33;;;;;;;10.52;4.85;;;16.10;37.60;;;;;;5044622;28;20074;-89
2022/04/19 10:12:59;;;;;;;8.93;5.43;;;16.40;41.20;;;;;;5044813;28;20029;-87
2022/04/19 10:15:25;;;;;;;10.57;4.97;;;16.20;37.20;;;;;;5051786;28;20448;-84
2022/04/19 10:17:50;;;;;;;8.50;5.10;;;16.40;38.70;;;;;;5055013;28;20058;-82
2022/04/19 10:20:31;;;;;;;9.93;5.40;;;17.10;38.70;;;;;;5032980;28;20613;-85
2022/04/19 10:23:01;;;;;;;8.00;5.18;;;17.70;38.90;;;;;;5052867;28;20057;-87
2022/04/19 10:25:40;;;;;;;11.07;6.10;;;17.80;36.60;;;;;;5050429;28;20033;-83
2022/04/19 10:28:09;;;;;;;7.82;4.95;;;17.50;36.50;;;;;;5057132;28;20078;-83
2022/04/19 10:30:46;;;;;;;7.93;5.38;;;17.30;38.00;;;;;;5053452;28;20037;-82
2022/04/19 10:33:47;;;;;;;10.00;5.18;;;17.30;35.80;;;;;;5045182;28;20052;-84
2022/04/19 10:36:16;;;;;;;8.55;5.10;;;17.10;36.00;;;;;;5087122;28;20025;-84
2022/04/19 10:38:44;;;;;;;7.97;4.85;;;17.30;34.90;;;;;;5053354;28;20040;-82
2022/04/19 10:41:09;;;;;;;8.93;5.25;;;17.30;35.60;;;;;;5043094;28;20042;-81
2022/04/19 10:43:35;;;;;;;9.63;5.82;;;17.20;37.00;;;;;;5090780;28;20438;-82
2022/04/19 10:46:17;;;;;;;9.18;6.10;;;17.40;38.80;;;;;;5057665;28;20032;-83
2022/04/19 10:49:20;;;;;;;9.43;5.45;;;17.80;35.40;;;;;;5055914;28;20032;-83
2022/04/19 10:51:46;;;;;;;10.90;5.97;;;17.40;33.30;;;;;;5060732;28;20035;-82
2022/04/19 10:54:13;;;;;;;11.57;5.68;;;16.90;34.00;;;;;;5040434;28;20037;-84
2022/04/19 10:58:05;;;;;;;6.53;4.35;;;17.60;36.30;;;;;;5058989;28;20059;-84
2022/04/19 11:00:00;;;;;;;8.98;5.50;;;17.30;34.90;;;;;;5057280;28;20040;-83
2022/04/19 11:02:36;;;;;;;9.68;5.50;;;17.80;32.80;;;;;;5052579;28;20029;-84
2022/04/19 11:05:03;;;;;;;9.82;6.53;;;17.70;32.40;;;;;;5050368;28;20083;-82
2022/04/19 11:07:41;;;;;;;8.98;6.03;;;17.90;33.90;;;;;;5047629;28;20527;-83
2022/04/19 11:10:07;;;;;;;9.85;5.53;;;17.90;33.20;;;;;;5047367;28;20480;-83
2022/04/19 11:12:56;;;;;;;9.68;5.95;;;18.40;31.90;;;;;;5032762;28;20025;-84
2022/04/19 11:15:38;;;;;;;8.90;5.25;;;19.40;35.00;;;;;;5058342;28;20059;-83
2022/04/19 11:18:22;;;;;;;12.13;5.85;;;20.40;29.80;;;;;;5049248;28;20035;-84
2022/04/19 11:20:49;;;;;;;9.18;5.85;;;20.70;29.90;;;;;;5056476;28;20503;-83
2022/04/19 11:23:24;;;;;;;11.55;6.10;;;20.30;32.70;;;;;;5039824;28;20647;-83
2022/04/19 11:25:52;;;;;;;10.52;5.30;;;20.90;29.70;;;;;;5068859;28;20020;-84
2022/04/19 11:28:19;;;;;;;10.82;6.28;;;21.00;28.40;;;;;;5052402;28;20047;-82
2022/04/19 11:31:05;;;;;;;7.93;5.47;;;20.40;28.60;;;;;;5037471;28;20068;-84
2022/04/19 11:33:33;;;;;;;8.68;5.50;;;20.80;28.50;;;;;;5054211;28;20970;-86
2022/04/19 11:36:09;;;;;;;7.03;5.38;;;21.00;29.50;;;;;;5021224;28;20065;-84
2022/04/19 11:38:41;;;;;;;9.02;5.45;;;21.40;29.60;;;;;;5020529;28;20120;-83
2022/04/19 11:46:44;;;;;;;6.70;4.50;;;19.00;28.70;;;;;;5019407;28;20095;-82
2022/04/19 11:49:18;;;;;;;7.25;4.03;;;19.50;31.00;;;;;;5021775;28;20041;-84
2022/04/19 11:51:52;;;;;;;11.07;5.22;;;18.80;30.50;;;;;;5025674;28;20033;-81
2022/04/19 11:54:22;;;;;;;8.10;4.70;;;17.90;31.00;;;;;;5024694;28;20055;-82
2022/04/19 11:56:54;;;;;;;8.40;4.82;;;18.30;32.20;;;;;;5024158;28;20056;-85
2022/04/19 11:59:32;;;;;;;7.13;4.35;;;19.00;29.60;;;;;;5023980;28;20040;-87
2022/04/19 12:01:59;;;;;;;12.45;5.55;;;18.60;30.40;;;;;;5057325;28;20038;-86
2022/04/19 12:04:25;;;;;;;8.65;5.32;;;19.60;29.50;;;;;;5028516;28;20033;-88
2022/04/19 12:06:52;;;;;;;9.00;4.75;;;20.60;28.40;;;;;;5058767;28;20036;-88
2022/04/19 12:09:19;;;;;;;7.50;4.60;;;22.00;27.50;;;;;;5029787;28;20032;-83
2022/04/19 12:11:47;;;;;;;7.80;5.00;;;23.10;26.80;;;;;;5028351;28;20029;-88
2022/04/19 12:14:50;;;;;;;9.20;5.15;;;22.90;25.20;;;;;;5043593;28;20047;-84
2022/04/19 12:17:20;;;;;;;7.35;4.47;;;22.80;25.00;;;;;;4985493;28;20033;-87
2022/04/19 12:19:46;;;;;;;6.88;4.60;;;23.80;23.60;;;;;;5030957;28;20097;-88
2022/04/19 12:22:15;;;;;;;9.23;5.15;;;23.60;24.50;;;;;;5029365;28;20029;-88
2022/04/19 12:24:47;;;;;;;8.55;5.93;;;21.40;27.00;;;;;;5031894;28;20049;-88
2022/04/19 12:27:12;;;;;;;15.10;6.07;;;20.00;27.70;;;;;;5028514;28;20489;-88
2022/04/19 12:29:58;;;;;;;11.10;6.32;;;20.00;27.70;;;;;;5026132;28;20036;-89
2022/04/19 12:32:25;;;;;;;12.30;6.13;;;19.00;30.30;;;;;;5029929;28;20569;-83
2022/04/19 12:35:04;;;;;;;8.57;5.28;;;18.70;29.30;;;;;;5057039;28;20033;-82
2022/04/19 12:37:30;;;;;;;9.68;6.35;;;19.70;30.00;;;;;;5030501;28;20092;-81
2022/04/19 12:40:03;;;;;;;11.30;6.72;;;21.30;27.40;;;;;;5030535;28;20030;-78
2022/04/19 12:42:28;;;;;;;12.10;6.55;;;22.20;25.50;;;;;;5043785;28;20112;-89
2022/04/19 12:45:12;;;;;;;14.75;6.18;;;21.10;26.30;;;;;;5043225;28;20125;-88
2022/04/19 12:47:47;;;;;;;9.68;5.85;;;19.50;29.30;;;;;;5035528;28;20033;-88
2022/04/19 12:50:16;;;;;;;9.50;6.82;;;19.10;29.00;;;;;;5030665;28;20033;-87
2022/04/19 12:52:42;;;;;;;13.48;6.55;;;20.70;27.80;;;;;;5042948;28;20037;-82
2022/04/19 12:55:11;;;;;;;8.18;6.25;;;20.70;29.00;;;;;;5031342;28;20041;-83
2022/04/19 12:57:38;;;;;;;8.77;6.53;;;20.50;28.50;;;;;;5036730;28;20041;-83
2022/04/19 13:00:09;;;;;;;9.07;6.18;;;22.10;26.60;;;;;;5032400;28;20017;-81
2022/04/19 13:02:40;;;;;;;8.35;5.65;;;23.50;25.20;;;;;;5049191;28;20036;-81
2022/04/19 13:05:06;;;;;;;13.57;6.38;;;22.50;24.10;;;;;;5053734;28;20032;-81
2022/04/19 13:13:04;;;;;;;7.05;4.93;;;24.50;23.50;;;;;;5052356;28;20039;-84
2022/04/19 13:15:34;;;;;;;7.65;4.45;;;22.30;24.20;;;;;;5058346;28;20028;-89
2022/04/19 13:18:00;;;;;;;4.32;2.75;;;21.80;24.50;;;;;;5059457;28;20064;-89
2022/04/19 13:20:26;;;;;;;9.40;3.05;;;20.30;25.70;;;;;;5038229;28;20484;-88
2022/04/19 13:22:52;;;;;;;12.07;3.78;;;19.50;28.40;;;;;;5056997;28;20033;-87
2022/04/19 13:25:20;;;;;;;7.30;3.97;;;20.90;27.00;;;;;;5057662;28;20086;-89
2022/04/19 13:27:47;;;;;;;7.05;3.55;;;23.00;24.30;;;;;;5058156;28;20044;-88
2022/04/19 13:30:16;;;;;;;5.28;3.20;;;23.80;24.10;;;;;;5055975;28;20037;-89
2022/04/19 13:32:42;;;;;;;6.65;3.22;;;24.00;22.60;;;;;;5049070;28;20060;-88
2022/04/19 13:35:09;;;;;;;5.03;3.42;;;24.20;22.00;;;;;;5039218;28;20040;-88
2022/04/19 13:40:20;;;;;;;5.05;3.08;;;21.40;23.70;;;;;;5044600;28;20048;-86
2022/04/19 13:42:46;;;;;;;9.88;3.10;;;21.90;23.80;;;;;;5106173;28;20160;-83